Terminal Aerodrome Forecast
Issued by NWS Melbourne, FL

Home | Current Version | Previous Version | Text Only | Print | Product List | Glossary On
Versions: 1 2 3 4 5 6 7 8 9 10 11 12 13
510
FTUS42 KMLB 202336
TAFVRB
TAF
KVRB 202336Z 2100/2124 07012KT P6SM VCSH SCT025 SCT035 SCT300
     FM211400 08012G18KT P6SM SCT025 SCT040
     FM211800 08014G20KT P6SM SCT030 SCT050=

USA.gov is the U.S. government's official web portal to all federal, state and local government web resources and services.